Time;durP1;ratioP1;P1;durP2;ratioP2;P2;SDS_P1;SDS_P2;PMS_P1;PMS_P2;Temp;Humidity;BMP_temperature;BMP_pressure;BME280_temperature;BME280_humidity;BME280_pressure;Samples;Min_cycle;Max_cycle;Signal;HPM_P1;HPM_P2
2023/02/20 00:00:19;;;;;;;3.10;2.88;;;11.00;72.00;;;;;;5046402;28;20244;-74
2023/02/20 00:02:48;;;;;;;2.92;2.72;;;10.90;72.40;;;;;;5052152;28;20183;-73
2023/02/20 00:05:14;;;;;;;3.55;2.95;;;10.90;72.40;;;;;;5052759;28;20194;-73
2023/02/20 00:07:40;;;;;;;3.00;2.70;;;10.90;72.10;;;;;;5050060;28;20199;-73
2023/02/20 00:10:08;;;;;;;3.92;2.72;;;10.90;72.70;;;;;;5051437;28;20192;-73
2023/02/20 00:12:33;;;;;;;2.10;2.08;;;10.90;72.90;;;;;;5052240;28;20188;-73
2023/02/20 00:14:59;;;;;;;2.63;2.50;;;11.00;72.70;;;;;;5059028;28;20668;-74
2023/02/20 00:17:25;;;;;;;2.75;2.55;;;10.90;73.30;;;;;;5050027;28;20210;-74
2023/02/20 00:19:50;;;;;;;5.85;2.92;;;10.90;73.60;;;;;;5049539;28;20193;-73
2023/02/20 00:22:16;;;;;;;2.60;2.42;;;10.70;74.20;;;;;;5052147;28;20654;-73
2023/02/20 00:24:42;;;;;;;2.30;2.10;;;10.60;74.30;;;;;;5047316;28;20721;-73
2023/02/20 00:27:07;;;;;;;3.97;2.53;;;10.60;74.50;;;;;;5050754;28;21605;-74
2023/02/20 00:29:33;;;;;;;3.35;2.97;;;10.60;74.40;;;;;;5047588;28;20289;-74
2023/02/20 00:31:59;;;;;;;2.60;2.40;;;10.60;74.50;;;;;;5049024;28;20405;-73
2023/02/20 00:34:27;;;;;;;3.10;2.90;;;10.60;74.50;;;;;;5044545;28;20171;-73
2023/02/20 00:36:53;;;;;;;2.42;2.28;;;10.60;74.70;;;;;;5047406;28;20691;-73
2023/02/20 00:39:19;;;;;;;3.17;2.55;;;10.40;75.60;;;;;;5050354;28;20183;-73
2023/02/20 00:41:45;;;;;;;2.65;2.47;;;10.40;75.30;;;;;;5049231;28;20172;-73
2023/02/20 00:44:10;;;;;;;3.58;2.63;;;10.40;75.40;;;;;;5052940;28;20241;-73
2023/02/20 00:46:36;;;;;;;2.53;2.33;;;10.30;76.00;;;;;;5046964;28;20256;-74
2023/02/20 00:49:02;;;;;;;3.15;2.88;;;10.20;76.30;;;;;;5049306;28;20818;-73
2023/02/20 00:51:28;;;;;;;2.70;2.50;;;10.30;76.10;;;;;;5045833;28;20180;-74
2023/02/20 00:53:54;;;;;;;2.97;2.85;;;10.30;75.70;;;;;;5048159;28;20208;-73
2023/02/20 00:56:20;;;;;;;2.55;2.35;;;10.40;75.50;;;;;;5045807;28;20257;-73
2023/02/20 00:58:45;;;;;;;2.90;2.42;;;10.40;75.30;;;;;;5051600;28;20207;-73
2023/02/20 01:01:11;;;;;;;3.55;2.95;;;10.30;76.00;;;;;;5047313;28;20240;-73
2023/02/20 01:03:36;;;;;;;2.55;1.95;;;10.30;75.80;;;;;;5045431;28;20317;-73
2023/02/20 01:06:02;;;;;;;2.85;2.22;;;10.30;75.80;;;;;;5044830;28;20579;-73
2023/02/20 01:08:28;;;;;;;3.28;2.90;;;10.20;76.00;;;;;;5049007;28;20696;-73
2023/02/20 01:10:53;;;;;;;2.53;2.38;;;10.20;76.50;;;;;;5052048;28;20206;-73
2023/02/20 01:13:19;;;;;;;2.35;2.13;;;10.20;76.40;;;;;;5049698;28;20182;-73
2023/02/20 01:15:45;;;;;;;3.28;3.08;;;10.10;76.50;;;;;;5051544;28;20244;-73
2023/02/20 01:18:10;;;;;;;2.58;2.30;;;10.00;77.30;;;;;;5053362;28;20202;-73
2023/02/20 01:20:36;;;;;;;2.75;2.55;;;9.90;77.10;;;;;;5052570;28;20183;-73
2023/02/20 01:23:02;;;;;;;4.18;3.15;;;9.90;77.10;;;;;;5047420;28;20290;-72
2023/02/20 01:25:28;;;;;;;3.10;2.83;;;9.90;77.20;;;;;;5049813;28;20176;-73
2023/02/20 01:27:53;;;;;;;2.73;2.50;;;9.80;77.40;;;;;;5048098;28;20244;-74
2023/02/20 01:30:19;;;;;;;3.00;2.80;;;9.80;77.50;;;;;;5047844;28;20176;-73
2023/02/20 01:32:45;;;;;;;3.97;2.57;;;9.90;77.70;;;;;;5050651;28;20195;-73
2023/02/20 01:35:11;;;;;;;3.60;2.88;;;9.90;77.40;;;;;;5051801;28;20197;-73
2023/02/20 01:37:36;;;;;;;4.10;2.88;;;9.90;77.80;;;;;;5043208;28;20183;-73
2023/02/20 01:40:04;;;;;;;3.30;2.53;;;9.90;77.80;;;;;;5048319;28;20187;-73
2023/02/20 01:42:32;;;;;;;2.42;2.33;;;10.00;77.90;;;;;;5047798;28;20175;-73
2023/02/20 01:45:22;;;;;;;4.43;2.92;;;10.00;78.00;;;;;;5050041;28;20657;-73
2023/02/20 01:47:54;;;;;;;2.70;2.58;;;10.10;77.90;;;;;;5046880;28;20233;-73
2023/02/20 01:50:31;;;;;;;2.67;2.47;;;10.10;78.30;;;;;;5044910;28;20187;-73
2023/02/20 01:53:02;;;;;;;2.17;2.03;;;10.10;78.20;;;;;;5047083;28;20691;-73
2023/02/20 01:55:35;;;;;;;3.92;2.25;;;10.10;78.40;;;;;;5050766;28;20178;-73
2023/02/20 01:58:15;;;;;;;3.15;2.92;;;10.10;78.60;;;;;;5043131;28;20191;-73
2023/02/20 02:00:41;;;;;;;2.97;2.70;;;10.10;78.70;;;;;;5049203;28;20266;-73
2023/02/20 02:03:10;;;;;;;2.83;2.63;;;10.10;78.80;;;;;;5051686;28;20317;-73
2023/02/20 02:05:40;;;;;;;3.15;2.95;;;10.10;79.00;;;;;;5048874;28;20934;-73
2023/02/20 02:08:08;;;;;;;3.22;2.97;;;10.10;79.10;;;;;;5046359;28;20211;-73
2023/02/20 02:10:58;;;;;;;2.63;2.42;;;10.00;79.30;;;;;;5044539;28;20571;-72
2023/02/20 02:13:24;;;;;;;3.05;2.53;;;10.00;79.40;;;;;;5018198;28;20599;-73
2023/02/20 02:15:51;;;;;;;2.53;2.15;;;9.90;79.60;;;;;;5019812;28;20204;-73
2023/02/20 02:18:34;;;;;;;1.98;1.77;;;9.80;79.40;;;;;;5001559;28;21114;-72
2023/02/20 02:21:30;;;;;;;1.98;1.80;;;9.80;79.30;;;;;;5019001;28;20277;-73
2023/02/20 02:24:04;;;;;;;1.57;1.10;;;9.70;79.30;;;;;;5018627;28;20743;-73
2023/02/20 02:26:56;;;;;;;0.93;0.93;;;9.60;79.10;;;;;;5003727;28;20242;-73
2023/02/20 02:29:52;;;;;;;2.40;1.03;;;9.60;78.80;;;;;;5019133;28;20248;-73
2023/02/20 02:32:51;;;;;;;0.87;0.87;;;9.50;78.50;;;;;;5020482;28;20193;-73
2023/02/20 02:35:35;;;;;;;0.60;0.60;;;9.50;78.50;;;;;;5024351;28;20192;-73
2023/02/20 02:38:07;;;;;;;0.70;0.70;;;9.40;78.50;;;;;;5022968;28;20887;-73
2023/02/20 02:40:53;;;;;;;0.50;0.50;;;9.40;78.80;;;;;;5021246;28;21077;-73
2023/02/20 02:43:23;;;;;;;0.97;0.97;;;9.30;79.10;;;;;;5022642;28;20586;-72
2023/02/20 02:45:56;;;;;;;0.60;0.60;;;9.20;79.20;;;;;;5022204;28;20233;-73
2023/02/20 02:48:31;;;;;;;0.50;0.50;;;9.00;79.60;;;;;;5021729;28;20275;-73
2023/02/20 02:51:04;;;;;;;0.37;0.37;;;9.00;79.70;;;;;;5042721;28;20642;-74
2023/02/20 02:53:30;;;;;;;0.40;0.40;;;8.90;80.20;;;;;;5046747;28;20180;-74
2023/02/20 02:55:56;;;;;;;0.80;0.57;;;8.80;80.60;;;;;;5056619;28;20179;-74
2023/02/20 02:58:22;;;;;;;0.60;0.60;;;8.70;81.20;;;;;;5056150;28;21925;-74
2023/02/20 03:00:56;;;;;;;0.70;0.70;;;8.60;81.20;;;;;;5053632;28;20229;-74
2023/02/20 03:03:31;;;;;;;0.43;0.43;;;8.70;80.70;;;;;;5052208;28;20617;-73
2023/02/20 03:06:22;;;;;;;0.93;0.60;;;8.70;81.00;;;;;;5049225;28;20182;-74
2023/02/20 03:08:56;;;;;;;0.50;0.50;;;8.70;80.70;;;;;;5050146;28;20898;-74
2023/02/20 03:11:24;;;;;;;0.40;0.40;;;8.70;80.90;;;;;;5052843;28;20221;-74
2023/02/20 03:16:54;;;;;;;0.60;0.50;;;8.70;80.70;;;;;;5050202;28;20866;-74
2023/02/20 03:19:31;;;;;;;0.40;0.40;;;8.80;80.50;;;;;;5048190;28;20261;-73
2023/02/20 03:21:59;;;;;;;0.50;0.40;;;8.80;80.30;;;;;;5049227;28;20198;-73
2023/02/20 03:24:26;;;;;;;0.50;0.50;;;8.80;80.30;;;;;;5055730;28;20183;-73
2023/02/20 03:26:55;;;;;;;0.50;0.50;;;8.80;80.20;;;;;;5051710;28;20206;-74
2023/02/20 03:29:33;;;;;;;0.60;0.60;;;8.70;80.20;;;;;;5051297;28;20318;-73
2023/02/20 03:43:26;;;;;;;0.30;0.30;;;8.60;80.20;;;;;;5051440;28;20195;-73
2023/02/20 03:46:01;;;;;;;0.50;0.50;;;8.60;80.40;;;;;;5049204;28;20245;-73
2023/02/20 03:48:31;;;;;;;0.43;0.43;;;8.50;80.40;;;;;;5046627;28;20706;-74
2023/02/20 03:50:57;;;;;;;0.30;0.30;;;8.50;80.40;;;;;;5054329;28;20572;-73
2023/02/20 03:53:24;;;;;;;0.40;0.40;;;8.50;80.40;;;;;;5047902;28;20187;-73
2023/02/20 03:55:52;;;;;;;0.47;0.47;;;8.50;80.40;;;;;;5030535;28;20272;-73
2023/02/20 03:58:22;;;;;;;0.30;0.30;;;8.40;80.30;;;;;;5034386;28;20187;-73
2023/02/20 04:00:51;;;;;;;0.50;0.50;;;8.40;80.60;;;;;;5035861;28;22052;-73
2023/02/20 04:03:22;;;;;;;0.37;0.37;;;8.40;80.40;;;;;;5026820;28;20188;-73
2023/02/20 04:05:52;;;;;;;0.30;0.30;;;8.40;80.30;;;;;;5024038;28;20223;-73
2023/02/20 04:08:34;;;;;;;0.40;0.40;;;8.40;80.30;;;;;;5044759;28;20594;-74
2023/02/20 04:11:05;;;;;;;0.27;0.27;;;8.20;80.60;;;;;;5042221;28;20175;-73
2023/02/20 04:13:32;;;;;;;0.27;0.27;;;8.30;80.60;;;;;;5044745;28;20661;-73
2023/02/20 04:16:01;;;;;;;0.40;0.40;;;8.30;80.40;;;;;;5056356;28;20231;-74
2023/02/20 04:18:27;;;;;;;0.30;0.30;;;8.40;80.10;;;;;;5049012;28;20262;-73
2023/02/20 04:20:55;;;;;;;0.60;0.60;;;8.40;80.10;;;;;;5048512;28;20287;-73
2023/02/20 04:23:23;;;;;;;0.40;0.40;;;8.50;79.90;;;;;;5049037;28;21020;-73
2023/02/20 04:25:55;;;;;;;0.30;0.30;;;8.60;79.40;;;;;;5046529;28;20171;-73
2023/02/20 04:28:21;;;;;;;0.33;0.33;;;8.70;79.10;;;;;;5047243;28;20215;-73
2023/02/20 04:30:48;;;;;;;0.50;0.50;;;8.70;79.00;;;;;;5053861;28;20191;-73
2023/02/20 04:33:14;;;;;;;0.50;0.50;;;8.70;78.90;;;;;;5051633;28;20261;-74
2023/02/20 04:35:40;;;;;;;0.50;0.50;;;8.70;79.20;;;;;;5051472;28;20730;-73
2023/02/20 04:38:07;;;;;;;0.73;0.50;;;8.80;79.20;;;;;;5051412;28;20252;-74
2023/02/20 04:40:32;;;;;;;0.33;0.33;;;8.70;79.40;;;;;;5044107;28;20183;-73
2023/02/20 04:42:58;;;;;;;0.30;0.30;;;8.70;79.40;;;;;;5046818;28;20228;-74
2023/02/20 04:45:24;;;;;;;1.70;0.50;;;8.60;79.50;;;;;;5050392;28;20187;-73
2023/02/20 04:47:49;;;;;;;0.40;0.40;;;8.60;79.60;;;;;;5048323;28;20183;-73
2023/02/20 04:50:27;;;;;;;0.83;0.63;;;8.50;79.60;;;;;;5051506;28;20203;-73
2023/02/20 04:52:53;;;;;;;0.77;0.57;;;8.50;79.20;;;;;;5045980;28;20187;-73
2023/02/20 04:55:19;;;;;;;0.30;0.30;;;8.40;79.10;;;;;;5043276;28;20179;-74
2023/02/20 04:57:46;;;;;;;0.40;0.40;;;8.30;78.90;;;;;;5046970;28;20259;-74
2023/02/20 05:00:14;;;;;;;0.40;0.30;;;8.30;78.70;;;;;;5047480;28;21060;-74
2023/02/20 05:02:41;;;;;;;0.23;0.23;;;8.30;78.10;;;;;;5046442;28;20201;-75
2023/02/20 05:05:18;;;;;;;0.30;0.30;;;8.20;77.70;;;;;;5048980;28;20179;-73
2023/02/20 05:07:44;;;;;;;0.50;0.30;;;8.20;77.40;;;;;;5056658;28;20261;-75
2023/02/20 05:10:20;;;;;;;0.23;0.23;;;8.20;77.30;;;;;;5056520;28;20207;-74
2023/02/20 05:12:46;;;;;;;0.30;0.30;;;8.20;77.50;;;;;;5045597;28;20192;-75
2023/02/20 05:15:12;;;;;;;0.40;0.40;;;8.10;77.00;;;;;;5044139;28;20204;-76
2023/02/20 05:17:38;;;;;;;0.30;0.30;;;8.10;76.90;;;;;;5025781;28;20709;-74
2023/02/20 05:20:05;;;;;;;0.40;0.40;;;8.00;76.90;;;;;;5029862;28;20194;-74
2023/02/20 05:22:31;;;;;;;0.30;0.30;;;7.90;76.60;;;;;;5031431;28;20748;-74
2023/02/20 05:24:57;;;;;;;0.27;0.27;;;7.90;76.80;;;;;;5048965;28;20179;-73
2023/02/20 05:27:24;;;;;;;0.30;0.30;;;7.90;76.60;;;;;;5028158;28;20750;-74
2023/02/20 05:29:53;;;;;;;0.93;0.30;;;7.90;76.70;;;;;;5040863;28;20219;-75
2023/02/20 05:32:20;;;;;;;0.40;0.40;;;7.90;76.70;;;;;;5044373;28;20180;-74
2023/02/20 05:34:46;;;;;;;0.40;0.40;;;7.90;76.80;;;;;;5052234;28;20182;-75
2023/02/20 05:37:14;;;;;;;0.30;0.30;;;7.90;76.80;;;;;;5050132;28;20738;-74
2023/02/20 05:39:39;;;;;;;0.60;0.60;;;7.90;76.90;;;;;;5050470;28;20191;-74
2023/02/20 05:42:06;;;;;;;0.40;0.40;;;7.90;76.90;;;;;;5050444;28;20167;-78
2023/02/20 05:44:32;;;;;;;2.00;0.70;;;7.90;77.30;;;;;;5046075;28;20228;-74
2023/02/20 05:46:57;;;;;;;0.60;0.60;;;7.90;77.40;;;;;;5053740;28;20203;-76
2023/02/20 05:49:23;;;;;;;0.67;0.67;;;7.90;77.70;;;;;;5043084;28;20688;-75
2023/02/20 05:51:50;;;;;;;1.23;0.57;;;7.90;77.80;;;;;;5045333;28;20188;-75
2023/02/20 05:54:16;;;;;;;0.87;0.87;;;7.90;78.20;;;;;;5045816;28;20665;-74
2023/02/20 05:56:43;;;;;;;0.70;0.70;;;8.00;78.10;;;;;;5050109;28;20176;-75
2023/02/20 05:59:09;;;;;;;0.87;0.87;;;8.00;78.10;;;;;;5048425;28;20187;-73
2023/02/20 06:01:35;;;;;;;1.10;1.00;;;8.00;78.00;;;;;;5048043;28;20257;-74
2023/02/20 06:04:01;;;;;;;3.43;0.80;;;8.10;78.00;;;;;;5055000;28;20183;-73
2023/02/20 06:06:34;;;;;;;1.00;1.00;;;8.10;77.90;;;;;;5049562;28;20566;-73
2023/02/20 06:09:00;;;;;;;0.70;0.70;;;8.20;77.60;;;;;;5054809;28;20230;-73
2023/02/20 06:11:26;;;;;;;0.70;0.70;;;8.20;76.60;;;;;;5054522;28;20195;-73
2023/02/20 06:13:52;;;;;;;0.50;0.50;;;8.30;76.20;;;;;;5056259;28;20245;-73
2023/02/20 06:16:23;;;;;;;0.50;0.50;;;8.20;74.80;;;;;;5053292;28;20183;-71
2023/02/20 06:18:48;;;;;;;0.60;0.60;;;8.30;74.90;;;;;;5054332;28;20184;-73
2023/02/20 06:21:14;;;;;;;0.67;0.67;;;8.30;74.60;;;;;;5051878;28;20761;-73
2023/02/20 06:23:44;;;;;;;0.70;0.70;;;8.40;74.30;;;;;;5054780;28;20240;-73
2023/02/20 06:26:11;;;;;;;0.40;0.33;;;8.50;74.40;;;;;;5051498;28;20203;-73
2023/02/20 06:28:38;;;;;;;0.80;0.80;;;8.60;74.30;;;;;;5045349;28;20207;-73
2023/02/20 06:31:04;;;;;;;0.43;0.43;;;8.70;74.40;;;;;;5053577;28;20675;-73
2023/02/20 06:33:30;;;;;;;0.87;0.67;;;8.70;74.20;;;;;;5052419;28;20730;-74
2023/02/20 06:35:56;;;;;;;0.67;0.67;;;8.90;74.30;;;;;;5050700;28;20199;-73
2023/02/20 06:38:23;;;;;;;0.70;0.70;;;8.90;73.50;;;;;;5054452;28;20217;-72
2023/02/20 06:40:49;;;;;;;0.50;0.50;;;9.00;73.30;;;;;;5057923;28;20183;-70
2023/02/20 06:43:14;;;;;;;0.60;0.60;;;9.10;72.70;;;;;;5056609;28;20175;-73
2023/02/20 06:45:40;;;;;;;0.60;0.60;;;9.10;72.20;;;;;;5056760;28;20232;-73
2023/02/20 06:48:06;;;;;;;0.73;0.70;;;9.10;71.60;;;;;;5052922;28;20759;-73
2023/02/20 06:50:32;;;;;;;0.60;0.60;;;9.10;71.60;;;;;;5054079;28;20237;-73
2023/02/20 06:52:58;;;;;;;0.50;0.50;;;9.10;71.60;;;;;;5054415;28;20205;-73
2023/02/20 06:55:23;;;;;;;0.50;0.50;;;9.10;71.40;;;;;;5050768;28;20202;-73
2023/02/20 06:57:50;;;;;;;0.70;0.70;;;9.00;71.60;;;;;;5051067;28;20211;-73
2023/02/20 07:00:17;;;;;;;5.90;0.80;;;9.00;71.80;;;;;;5055646;28;20191;-73
2023/02/20 07:02:43;;;;;;;0.70;0.70;;;8.90;71.60;;;;;;5053134;28;20179;-73
2023/02/20 07:05:11;;;;;;;0.40;0.40;;;8.90;71.70;;;;;;5055132;28;20872;-73
2023/02/20 07:07:36;;;;;;;0.80;0.80;;;8.90;71.30;;;;;;5052557;28;20225;-73
2023/02/20 07:10:04;;;;;;;0.63;0.63;;;8.90;71.40;;;;;;5041965;28;20298;-73
2023/02/20 07:12:31;;;;;;;1.23;0.57;;;9.00;71.30;;;;;;5040434;28;20184;-73
2023/02/20 07:14:57;;;;;;;0.47;0.47;;;9.00;70.60;;;;;;5047367;28;20199;-73
2023/02/20 07:17:23;;;;;;;0.97;0.57;;;9.10;70.10;;;;;;5046738;28;20186;-73
2023/02/20 07:19:49;;;;;;;0.30;0.30;;;9.10;69.70;;;;;;5054500;28;20187;-75
2023/02/20 07:22:14;;;;;;;0.60;0.60;;;9.20;69.20;;;;;;5054453;28;20188;-74
2023/02/20 07:24:40;;;;;;;0.40;0.40;;;9.40;68.70;;;;;;5051221;28;20190;-74
2023/02/20 07:27:09;;;;;;;6.30;0.50;;;9.70;68.20;;;;;;5053494;28;20186;-74
2023/02/20 07:29:35;;;;;;;0.63;0.63;;;9.90;67.30;;;;;;5050466;28;20700;-74
2023/02/20 07:32:01;;;;;;;0.37;0.37;;;10.00;66.90;;;;;;5049412;28;20562;-74
2023/02/20 07:34:27;;;;;;;0.40;0.40;;;10.00;66.00;;;;;;5050809;28;20264;-74
2023/02/20 07:36:53;;;;;;;1.13;0.50;;;10.00;66.00;;;;;;5048680;28;20223;-73
2023/02/20 07:39:19;;;;;;;0.32;0.32;;;10.10;65.60;;;;;;5041503;28;20704;-73
2023/02/20 07:41:44;;;;;;;1.08;0.35;;;10.00;65.70;;;;;;5046202;28;20319;-74
2023/02/20 07:44:13;;;;;;;0.32;0.32;;;10.00;65.80;;;;;;5051966;28;20274;-73
2023/02/20 07:46:39;;;;;;;0.40;0.40;;;10.00;65.30;;;;;;5050407;28;20258;-73
2023/02/20 07:49:05;;;;;;;4.80;0.70;;;10.00;65.10;;;;;;5050965;28;20573;-74
2023/02/20 07:51:32;;;;;;;0.50;0.32;;;10.00;65.10;;;;;;5057748;28;20270;-74
2023/02/20 07:53:57;;;;;;;0.40;0.40;;;10.00;65.30;;;;;;5051925;28;20192;-71
2023/02/20 07:56:23;;;;;;;0.30;0.30;;;10.20;65.20;;;;;;5054848;28;20179;-74
2023/02/20 07:58:50;;;;;;;0.28;0.28;;;10.50;64.60;;;;;;5045454;28;20298;-73
2023/02/20 08:01:16;;;;;;;0.35;0.35;;;11.00;63.80;;;;;;5052120;28;20206;-74
2023/02/20 08:03:42;;;;;;;0.32;0.28;;;11.40;62.90;;;;;;5050417;28;20261;-74
2023/02/20 08:06:08;;;;;;;0.40;0.40;;;11.70;62.30;;;;;;5052985;28;20271;-74
2023/02/20 08:08:33;;;;;;;0.30;0.30;;;12.10;61.40;;;;;;5056790;28;20786;-74
2023/02/20 08:10:59;;;;;;;1.60;0.40;;;12.50;60.20;;;;;;5043978;28;20192;-74
2023/02/20 08:13:25;;;;;;;0.20;0.20;;;12.70;59.60;;;;;;5052171;28;20237;-74
2023/02/20 08:15:51;;;;;;;0.20;0.20;;;13.00;59.50;;;;;;5048301;28;20186;-74
2023/02/20 08:18:17;;;;;;;0.20;0.20;;;13.10;58.60;;;;;;5045411;28;20725;-74
2023/02/20 08:20:42;;;;;;;0.20;0.20;;;13.40;58.20;;;;;;5049629;28;20245;-73
2023/02/20 08:23:19;;;;;;;0.22;0.22;;;13.50;57.90;;;;;;5053792;28;20675;-73
2023/02/20 08:25:45;;;;;;;0.20;0.20;;;13.80;57.30;;;;;;5048733;28;20248;-74
2023/02/20 08:28:11;;;;;;;0.08;0.08;;;13.70;56.60;;;;;;5050719;28;20182;-74
2023/02/20 08:30:37;;;;;;;0.25;0.25;;;13.50;57.20;;;;;;5048601;28;20207;-74
2023/02/20 08:33:05;;;;;;;0.20;0.20;;;13.70;57.40;;;;;;5049399;28;20200;-74
2023/02/20 08:35:33;;;;;;;0.10;0.10;;;13.90;56.70;;;;;;5049734;28;20278;-74
2023/02/20 08:38:04;;;;;;;0.30;0.30;;;14.10;56.30;;;;;;5050934;28;20567;-74
2023/02/20 08:40:30;;;;;;;0.10;0.10;;;14.10;56.20;;;;;;5054389;28;20378;-74
2023/02/20 08:42:55;;;;;;;0.15;0.15;;;14.00;56.30;;;;;;5054688;28;20178;-74
2023/02/20 08:45:22;;;;;;;0.28;0.28;;;14.20;56.30;;;;;;5051833;28;20697;-73
2023/02/20 08:47:49;;;;;;;0.20;0.20;;;14.50;56.10;;;;;;5048067;28;20166;-74
2023/02/20 08:50:18;;;;;;;4.75;0.30;;;14.70;55.40;;;;;;5046422;28;20247;-73
2023/02/20 08:52:44;;;;;;;0.10;0.10;;;14.60;55.30;;;;;;5051724;28;20195;-73
2023/02/20 08:55:11;;;;;;;2.83;0.22;;;14.30;55.50;;;;;;5046316;28;20202;-73
2023/02/20 08:57:37;;;;;;;0.20;0.20;;;14.60;55.60;;;;;;5047735;28;20684;-74
2023/02/20 09:00:06;;;;;;;0.95;0.10;;;14.90;55.30;;;;;;5051829;28;20190;-74
2023/02/20 09:02:31;;;;;;;0.20;0.20;;;15.20;54.10;;;;;;5041102;28;20256;-73
2023/02/20 09:04:57;;;;;;;0.28;0.20;;;15.30;54.10;;;;;;5048529;28;20183;-73
2023/02/20 09:07:23;;;;;;;0.20;0.20;;;15.30;53.50;;;;;;5049866;28;20192;-73
2023/02/20 09:09:49;;;;;;;0.30;0.30;;;15.60;53.40;;;;;;5048016;28;20305;-74
2023/02/20 09:12:16;;;;;;;0.65;0.20;;;15.90;52.20;;;;;;5048307;28;20258;-74
2023/02/20 09:14:42;;;;;;;0.40;0.17;;;16.00;52.00;;;;;;5048462;28;20242;-74
2023/02/20 09:17:08;;;;;;;0.20;0.20;;;16.30;51.90;;;;;;5048124;28;20765;-73
2023/02/20 09:19:34;;;;;;;0.20;0.20;;;16.40;51.70;;;;;;5047426;28;20613;-73
2023/02/20 09:22:00;;;;;;;0.20;0.20;;;16.60;51.70;;;;;;5047682;28;20186;-72
2023/02/20 09:24:30;;;;;;;0.30;0.30;;;16.80;51.20;;;;;;5049886;28;20182;-75
2023/02/20 09:26:56;;;;;;;0.47;0.47;;;16.40;50.70;;;;;;5047967;28;20176;-74
2023/02/20 09:29:22;;;;;;;1.35;0.32;;;15.90;51.70;;;;;;5049900;28;20727;-74
2023/02/20 09:31:48;;;;;;;0.30;0.30;;;15.50;52.40;;;;;;5052548;28;20182;-74
2023/02/20 09:34:14;;;;;;;0.20;0.20;;;15.70;52.30;;;;;;5050687;28;20179;-74
2023/02/20 09:36:39;;;;;;;0.20;0.20;;;15.90;52.20;;;;;;5050074;28;20229;-74
2023/02/20 09:39:05;;;;;;;0.15;0.15;;;16.00;52.40;;;;;;5043841;28;20187;-73
2023/02/20 09:41:43;;;;;;;0.20;0.20;;;16.50;52.00;;;;;;5055889;28;20180;-73
2023/02/20 09:44:37;;;;;;;0.20;0.20;;;17.00;51.10;;;;;;5045828;28;20811;-74
2023/02/20 09:47:25;;;;;;;0.30;0.20;;;17.20;50.60;;;;;;5053938;28;20178;-75
2023/02/20 09:49:52;;;;;;;0.38;0.38;;;16.80;51.00;;;;;;5056692;28;20457;-74
2023/02/20 09:52:18;;;;;;;0.38;0.20;;;16.60;51.60;;;;;;5058189;28;20186;-74
2023/02/20 09:54:57;;;;;;;0.45;0.30;;;16.60;51.50;;;;;;5056490;28;20212;-74
2023/02/20 09:57:26;;;;;;;0.25;0.25;;;16.70;51.70;;;;;;5056994;28;20178;-74
2023/02/20 09:59:53;;;;;;;0.20;0.20;;;17.10;51.40;;;;;;5055637;28;20285;-75
2023/02/20 10:02:33;;;;;;;0.35;0.35;;;17.50;50.50;;;;;;5050045;28;20255;-74
2023/02/20 10:05:05;;;;;;;0.20;0.20;;;18.00;49.50;;;;;;5050489;28;20179;-74
2023/02/20 10:07:34;;;;;;;0.20;0.20;;;18.10;49.30;;;;;;5053252;28;20198;-74
2023/02/20 10:10:20;;;;;;;0.30;0.25;;;18.10;49.00;;;;;;5048872;28;20215;-74
2023/02/20 10:13:12;;;;;;;0.22;0.22;;;18.50;48.50;;;;;;5054280;28;20214;-74
2023/02/20 10:16:02;;;;;;;0.25;0.25;;;18.90;47.40;;;;;;5053769;28;20273;-74
2023/02/20 10:18:27;;;;;;;0.28;0.28;;;19.10;46.60;;;;;;5052936;28;20168;-74
2023/02/20 10:21:07;;;;;;;0.20;0.20;;;18.30;46.40;;;;;;5058787;28;20805;-74
2023/02/20 10:23:49;;;;;;;1.27;0.20;;;17.90;47.10;;;;;;5057908;28;20199;-74
2023/02/20 10:26:35;;;;;;;0.22;0.22;;;17.80;47.50;;;;;;5043311;28;20183;-76
2023/02/20 10:29:19;;;;;;;0.20;0.20;;;17.80;47.70;;;;;;5047140;28;20576;-74
2023/02/20 10:31:52;;;;;;;0.50;0.20;;;17.80;47.10;;;;;;5047765;28;20183;-75
2023/02/20 10:34:22;;;;;;;0.20;0.20;;;18.20;47.10;;;;;;5053034;28;22094;-75
2023/02/20 10:36:54;;;;;;;0.25;0.20;;;18.20;47.50;;;;;;5048723;28;20188;-75
2023/02/20 10:39:22;;;;;;;0.70;0.13;;;18.50;46.30;;;;;;5056906;28;20254;-76
2023/02/20 10:42:15;;;;;;;0.60;0.20;;;18.30;46.80;;;;;;5047006;28;20187;-74
2023/02/20 10:45:04;;;;;;;0.20;0.20;;;18.40;47.10;;;;;;5047175;28;20188;-74
2023/02/20 10:48:06;;;;;;;0.20;0.20;;;18.80;46.70;;;;;;5052717;28;20879;-74
2023/02/20 10:50:44;;;;;;;0.20;0.20;;;18.60;46.70;;;;;;5051861;28;20194;-74
2023/02/20 10:53:41;;;;;;;0.40;0.40;;;18.70;46.80;;;;;;5052100;28;20245;-74
2023/02/20 10:56:17;;;;;;;0.22;0.22;;;19.20;46.20;;;;;;5053467;28;20211;-74
2023/02/20 10:58:59;;;;;;;1.67;0.40;;;19.20;45.80;;;;;;5045185;28;20183;-74
2023/02/20 11:01:26;;;;;;;0.28;0.28;;;19.30;45.60;;;;;;5050616;28;20257;-74
2023/02/20 11:04:02;;;;;;;0.75;0.32;;;19.70;44.90;;;;;;5054521;28;20264;-74
2023/02/20 11:06:48;;;;;;;0.10;0.10;;;19.90;44.70;;;;;;5047676;28;20198;-75
2023/02/20 11:09:14;;;;;;;1.00;0.30;;;19.60;44.90;;;;;;5052349;28;20592;-74
2023/02/20 11:11:43;;;;;;;0.50;0.22;;;19.60;45.30;;;;;;5051407;28;20186;-74
2023/02/20 11:14:17;;;;;;;0.32;0.32;;;19.50;45.50;;;;;;5047278;28;20194;-74
2023/02/20 11:17:11;;;;;;;0.40;0.40;;;19.70;45.40;;;;;;5050775;28;20691;-74
2023/02/20 11:19:40;;;;;;;0.25;0.20;;;19.90;45.30;;;;;;5050187;28;20191;-75
2023/02/20 11:22:05;;;;;;;0.40;0.35;;;19.60;45.20;;;;;;5047986;28;20175;-75
2023/02/20 11:24:32;;;;;;;1.10;0.38;;;19.70;45.50;;;;;;5048896;28;20589;-74
2023/02/20 11:27:19;;;;;;;0.38;0.20;;;20.00;45.80;;;;;;5048353;28;20685;-73
2023/02/20 11:29:53;;;;;;;0.10;0.10;;;20.60;44.70;;;;;;5050609;28;20211;-74
2023/02/20 11:32:22;;;;;;;2.00;0.30;;;21.10;44.40;;;;;;5050869;28;20201;-74
2023/02/20 11:34:48;;;;;;;1.67;0.30;;;21.40;44.10;;;;;;5052081;28;20723;-74
2023/02/20 11:37:14;;;;;;;0.20;0.20;;;21.20;44.10;;;;;;5050470;28;20179;-74
2023/02/20 11:39:46;;;;;;;0.17;0.17;;;21.00;44.10;;;;;;5048230;28;20294;-73
2023/02/20 11:42:17;;;;;;;0.20;0.20;;;20.80;44.20;;;;;;5051791;28;20250;-73
2023/02/20 11:44:43;;;;;;;0.68;0.22;;;20.70;44.60;;;;;;5047158;28;20198;-73
2023/02/20 11:47:21;;;;;;;0.20;0.20;;;20.70;44.50;;;;;;5052925;28;20728;-75
2023/02/20 11:49:47;;;;;;;0.20;0.20;;;20.80;44.40;;;;;;5049712;28;20238;-73
2023/02/20 11:52:22;;;;;;;0.28;0.28;;;20.70;44.40;;;;;;5042031;28;20270;-73
2023/02/20 11:55:10;;;;;;;0.13;0.13;;;20.50;44.80;;;;;;5084138;28;20274;-73
2023/02/20 11:57:42;;;;;;;0.20;0.20;;;20.30;44.80;;;;;;5052336;28;20626;-74
2023/02/20 12:00:16;;;;;;;0.20;0.20;;;20.20;45.50;;;;;;5047197;28;20248;-75
2023/02/20 12:02:51;;;;;;;0.20;0.20;;;20.20;45.10;;;;;;5050475;28;20676;-75
2023/02/20 12:05:18;;;;;;;0.10;0.10;;;20.10;44.90;;;;;;5049166;28;20183;-75
2023/02/20 12:07:52;;;;;;;0.10;0.10;;;20.00;45.20;;;;;;5050351;28;20634;-75
2023/02/20 12:10:27;;;;;;;0.10;0.10;;;19.60;45.20;;;;;;5048169;28;20687;-75
2023/02/20 12:12:53;;;;;;;2.75;0.10;;;19.50;45.50;;;;;;5046185;28;20263;-73
2023/02/20 12:15:23;;;;;;;0.28;0.28;;;19.40;45.80;;;;;;5042203;28;20183;-74
2023/02/20 12:18:04;;;;;;;0.10;0.10;;;19.40;45.80;;;;;;5047981;28;20183;-75
2023/02/20 12:20:32;;;;;;;0.17;0.15;;;19.70;45.60;;;;;;5047261;28;20194;-75
2023/02/20 12:23:17;;;;;;;0.20;0.10;;;19.70;45.20;;;;;;5050296;28;20668;-74
2023/02/20 12:25:51;;;;;;;0.63;0.10;;;19.40;45.40;;;;;;5049540;28;20179;-75
2023/02/20 12:28:48;;;;;;;0.20;0.20;;;19.00;45.80;;;;;;5049340;28;20190;-74
2023/02/20 12:31:35;;;;;;;0.40;0.20;;;18.80;46.20;;;;;;5049013;28;20258;-74
2023/02/20 12:34:30;;;;;;;0.10;0.10;;;18.80;46.40;;;;;;5051046;28;20315;-74
2023/02/20 12:37:26;;;;;;;0.10;0.10;;;18.70;46.30;;;;;;5005693;28;20714;-75
2023/02/20 12:39:57;;;;;;;0.10;0.10;;;18.40;46.50;;;;;;5009569;28;20952;-74
2023/02/20 12:42:43;;;;;;;0.05;0.05;;;18.30;47.30;;;;;;5008557;28;20201;-74
2023/02/20 12:45:20;;;;;;;0.10;0.10;;;18.20;46.80;;;;;;5009948;28;20196;-74
2023/02/20 12:47:49;;;;;;;0.13;0.13;;;18.10;47.00;;;;;;5007461;28;20196;-74
2023/02/20 12:50:36;;;;;;;0.10;0.10;;;18.10;47.20;;;;;;5009417;28;20224;-74
2023/02/20 12:53:10;;;;;;;0.10;0.10;;;18.10;47.40;;;;;;5007291;28;20300;-75
2023/02/20 12:56:02;;;;;;;1.17;0.10;;;17.90;47.30;;;;;;5008327;28;20217;-75
2023/02/20 12:58:37;;;;;;;0.10;0.10;;;17.90;47.40;;;;;;5005684;28;20188;-74
2023/02/20 13:01:09;;;;;;;0.15;0.15;;;18.00;47.70;;;;;;5007069;28;20624;-74
2023/02/20 13:03:48;;;;;;;0.17;0.17;;;18.40;47.40;;;;;;5008495;28;20189;-75
2023/02/20 13:06:38;;;;;;;0.08;0.08;;;18.60;46.50;;;;;;5007299;28;20200;-74
2023/02/20 13:09:13;;;;;;;0.10;0.10;;;18.60;46.50;;;;;;5006162;28;20229;-74
2023/02/20 13:11:44;;;;;;;1.75;0.10;;;18.60;46.60;;;;;;5004588;28;20799;-74
2023/02/20 13:14:13;;;;;;;4.15;0.30;;;18.40;46.60;;;;;;5032121;28;20206;-75
2023/02/20 13:17:16;;;;;;;0.10;0.10;;;18.20;47.40;;;;;;5045517;28;20183;-75
2023/02/20 13:19:56;;;;;;;0.10;0.10;;;17.90;47.50;;;;;;5038293;28;20195;-75
2023/02/20 13:22:23;;;;;;;0.75;0.20;;;18.00;47.80;;;;;;5049960;28;20721;-74